Time;durP1;ratioP1;P1;durP2;ratioP2;P2;SDS_P1;SDS_P2;PMS_P1;PMS_P2;Temp;Humidity;BMP_temperature;BMP_pressure;BME280_temperature;BME280_humidity;BME280_pressure;Samples;Min_cycle;Max_cycle;Signal;HPM_P1;HPM_P2
2022/08/21 00:00:01;;;;;;;10.50;9.03;;;;;;;17.61;88.46;100315.72;1746579;81;21929;-70
2022/08/21 00:02:28;;;;;;;10.10;9.13;;;;;;;17.62;88.51;100318.73;1725383;81;20943;-70
2022/08/21 00:04:54;;;;;;;11.50;9.00;;;;;;;17.65;88.49;100320.98;1726559;81;20995;-70
2022/08/21 00:07:20;;;;;;;10.15;8.28;;;;;;;17.66;88.49;100324.00;1729273;81;21090;-70
2022/08/21 00:09:47;;;;;;;14.35;9.25;;;;;;;17.68;88.52;100325.94;1732507;81;21042;-70
2022/08/21 00:12:13;;;;;;;15.03;9.83;;;;;;;17.69;88.51;100327.59;1725757;81;21028;-70
2022/08/21 00:14:39;;;;;;;12.58;9.68;;;;;;;17.69;88.53;100316.81;1725676;81;21002;-70
2022/08/21 00:17:06;;;;;;;12.37;9.33;;;;;;;17.70;88.51;100321.14;1726132;81;21020;-70
2022/08/21 00:19:32;;;;;;;15.80;9.98;;;;;;;17.70;88.52;100321.14;1732252;81;21468;-70
2022/08/21 00:21:58;;;;;;;12.05;9.60;;;;;;;17.71;88.52;100324.98;1725312;81;21448;-70
2022/08/21 00:24:25;;;;;;;13.80;10.00;;;;;;;17.73;88.53;100319.38;1739904;81;21580;-70
2022/08/21 00:26:51;;;;;;;15.25;9.35;;;;;;;17.73;88.53;100318.83;1733245;81;21078;-70
2022/08/21 00:29:17;;;;;;;13.15;10.38;;;;;;;17.74;88.54;100319.66;1725722;81;21506;-70
2022/08/21 00:31:43;;;;;;;11.25;10.08;;;;;;;17.77;88.54;100319.22;1725534;81;21486;-70
2022/08/21 00:34:10;;;;;;;11.63;9.88;;;;;;;17.76;88.54;100312.20;1726306;81;21455;-70
2022/08/21 00:36:36;;;;;;;12.93;10.43;;;;;;;17.80;88.57;100314.22;1727068;81;21425;-70
2022/08/21 00:39:04;;;;;;;11.75;10.55;;;;;;;17.81;88.56;100312.34;1726169;81;20985;-70
2022/08/21 00:41:30;;;;;;;13.35;11.33;;;;;;;17.80;88.55;100306.67;1741631;81;21024;-70
2022/08/21 00:43:57;;;;;;;14.38;11.33;;;;;;;17.81;88.54;100308.30;1730651;81;20895;-70
2022/08/21 00:46:23;;;;;;;12.25;10.88;;;;;;;17.81;88.54;100308.30;1727256;81;21011;-70
2022/08/21 00:48:49;;;;;;;12.73;11.20;;;;;;;17.82;88.52;100305.92;1726360;81;21051;-70
2022/08/21 00:51:25;;;;;;;13.25;10.70;;;;;;;17.82;88.52;100305.92;1732174;81;20964;-70
2022/08/21 00:53:57;;;;;;;13.22;10.93;;;;;;;17.83;88.51;100303.53;1725927;81;21049;-70
2022/08/21 00:56:23;;;;;;;11.55;10.43;;;;;;;17.83;88.52;100300.31;1726562;81;21009;-70
2022/08/21 00:58:49;;;;;;;11.75;10.05;;;;;;;17.84;88.50;100301.12;1735228;81;20988;-70
2022/08/21 01:01:17;;;;;;;11.60;10.40;;;;;;;17.85;88.51;100298.73;1732905;81;21105;-70
2022/08/21 01:06:27;;;;;;;12.65;11.10;;;;;;;17.88;88.49;100299.64;1797315;78;22728;-70
2022/08/21 01:08:53;;;;;;;15.63;11.55;;;;;;;17.84;88.46;100298.42;1735316;81;21063;-70
2022/08/21 01:11:19;;;;;;;13.10;11.20;;;;;;;17.85;88.49;100302.78;1742713;80;21496;-70
2022/08/21 01:13:46;;;;;;;12.58;11.30;;;;;;;17.84;88.47;100303.30;1748471;80;21505;-69
2022/08/21 01:16:15;;;;;;;14.85;12.15;;;;;;;17.85;88.46;100305.47;1739253;81;21551;-70
2022/08/21 01:18:41;;;;;;;12.83;11.53;;;;;;;17.85;88.47;100302.78;1706461;81;21007;-70
2022/08/21 01:21:17;;;;;;;12.03;10.82;;;;;;;17.86;88.46;100301.74;1703669;81;21015;-69
2022/08/21 01:23:45;;;;;;;14.43;11.43;;;;;;;17.87;88.46;100300.70;1703406;81;21152;-69
2022/08/21 01:26:13;;;;;;;14.53;11.50;;;;;;;17.86;88.44;100303.92;1738558;80;20999;-70
2022/08/21 01:28:49;;;;;;;11.73;10.53;;;;;;;17.87;88.46;100307.45;1711693;81;21211;-70
2022/08/21 01:31:15;;;;;;;12.95;10.20;;;;;;;17.86;88.47;100297.69;1703478;81;21106;-70
2022/08/21 01:33:41;;;;;;;10.75;9.65;;;;;;;17.85;88.49;100296.03;1736731;80;21079;-70
2022/08/21 01:36:07;;;;;;;11.50;9.08;;;;;;;17.86;88.51;100290.95;1728994;80;21090;-70
2022/08/21 01:38:33;;;;;;;11.43;9.73;;;;;;;17.86;88.52;100286.90;1705040;81;21023;-69
2022/08/21 01:41:00;;;;;;;10.95;9.38;;;;;;;17.86;88.52;100285.55;1741084;80;21078;-69
2022/08/21 01:43:26;;;;;;;12.80;9.03;;;;;;;17.87;88.50;100287.21;1703420;81;21062;-69
2022/08/21 01:45:52;;;;;;;11.60;8.78;;;;;;;17.86;88.49;100278.80;1745750;80;20999;-70
2022/08/21 01:48:18;;;;;;;12.30;8.73;;;;;;;17.84;88.47;100286.27;1729358;81;21151;-70
2022/08/21 01:50:44;;;;;;;12.53;8.98;;;;;;;17.81;88.43;100285.38;1744329;80;21094;-70
2022/08/21 01:53:10;;;;;;;10.25;9.20;;;;;;;17.79;88.43;100289.66;1757221;81;21066;-70
2022/08/21 01:55:36;;;;;;;9.43;8.43;;;;;;;17.79;88.41;100293.70;1759397;80;21034;-70
2022/08/21 01:58:02;;;;;;;9.10;8.20;;;;;;;17.78;88.39;100300.66;1720063;81;21515;-70
2022/08/21 02:00:29;;;;;;;10.18;9.18;;;;;;;17.77;88.38;100295.77;1759974;80;21125;-70
2022/08/21 02:02:55;;;;;;;10.80;9.70;;;;;;;17.77;88.33;100292.25;1789046;79;20963;-69
2022/08/21 02:05:21;;;;;;;9.93;7.70;;;;;;;17.72;88.28;100291.58;1758641;80;21697;-70
2022/08/21 02:07:51;;;;;;;10.35;8.53;;;;;;;17.72;88.27;100292.09;1760328;80;21463;-70
2022/08/21 02:10:21;;;;;;;11.38;9.28;;;;;;;17.71;88.28;100287.73;1782090;79;21476;-69
2022/08/21 02:12:47;;;;;;;10.45;9.35;;;;;;;17.69;88.25;100286.62;1759661;81;21869;-70
2022/08/21 02:15:14;;;;;;;14.05;9.48;;;;;;;17.67;88.24;100290.05;1759548;80;21497;-70
2022/08/21 02:17:47;;;;;;;10.28;9.25;;;;;;;17.66;88.23;100280.84;1759351;80;21407;-70
2022/08/21 02:20:24;;;;;;;14.20;9.65;;;;;;;17.64;88.23;100281.56;1758916;80;21011;-70
2022/08/21 02:22:50;;;;;;;8.78;7.87;;;;;;;17.62;88.26;100275.58;1759300;81;21085;-70
2022/08/21 02:25:17;;;;;;;9.70;8.70;;;;;;;17.59;88.25;100278.71;1764230;80;21054;-70
2022/08/21 02:27:44;;;;;;;10.13;9.03;;;;;;;17.57;88.25;100279.44;1775514;79;21035;-70
2022/08/21 02:30:12;;;;;;;10.28;8.78;;;;;;;17.55;88.28;100280.16;1761631;80;21007;-69
2022/08/21 02:32:38;;;;;;;10.15;8.53;;;;;;;17.54;88.28;100285.23;1778191;79;21046;-69
2022/08/21 02:35:05;;;;;;;9.10;8.20;;;;;;;17.53;88.31;100279.53;1758138;80;21043;-70
2022/08/21 02:37:31;;;;;;;10.08;8.43;;;;;;;17.52;88.33;100273.86;1737839;81;21551;-70
2022/08/21 02:40:00;;;;;;;9.95;8.68;;;;;;;17.52;88.34;100269.81;1759193;81;21527;-70
2022/08/21 02:42:27;;;;;;;;;;;;;;;17.52;88.36;100268.46;1762423;80;20995;-70
2022/08/21 02:44:53;;;;;;;9.75;8.75;;;;;;;17.52;88.36;100259.02;1759190;80;20175;-70
2022/08/21 02:47:19;;;;;;;11.28;8.83;;;;;;;17.51;88.36;100263.59;1758927;80;21050;-70
2022/08/21 02:49:45;;;;;;;10.00;8.28;;;;;;;17.53;88.40;100263.34;1772942;80;21150;-70
2022/08/21 02:52:11;;;;;;;11.30;8.55;;;;;;;17.52;88.40;100263.07;1767290;80;21007;-70
2022/08/21 02:54:37;;;;;;;9.35;8.53;;;;;;;17.53;88.42;100262.83;1758295;80;21015;-69
2022/08/21 02:57:04;;;;;;;8.45;7.35;;;;;;;17.53;88.40;100266.05;1772759;80;21039;-69
2022/08/21 02:59:31;;;;;;;10.13;8.05;;;;;;;17.53;88.42;100270.92;1759420;80;21007;-69
2022/08/21 03:01:57;;;;;;;10.82;8.43;;;;;;;17.52;88.44;100267.95;1770305;80;21141;-70
2022/08/21 03:04:23;;;;;;;9.40;8.50;;;;;;;17.54;88.41;100273.10;1769057;79;20975;-70
2022/08/21 03:06:49;;;;;;;10.75;8.00;;;;;;;17.53;88.41;100274.14;1772342;79;20979;-70
2022/08/21 03:09:15;;;;;;;9.53;8.53;;;;;;;17.54;88.41;100278.50;1796213;79;21294;-70
2022/08/21 03:11:41;;;;;;;9.00;8.08;;;;;;;17.54;88.42;100277.14;1768586;79;21003;-70
2022/08/21 03:14:08;;;;;;;10.82;9.13;;;;;;;17.55;88.42;100282.85;1778631;79;21128;-70
2022/08/21 03:16:34;;;;;;;12.23;10.48;;;;;;;17.55;88.42;100276.11;1760178;79;20979;-70
2022/08/21 03:19:01;;;;;;;12.00;10.68;;;;;;;17.56;88.44;100277.77;1784317;79;21562;-70
2022/08/21 03:21:28;;;;;;;11.30;10.13;;;;;;;17.58;88.45;100278.40;1771266;79;21480;-70
2022/08/21 03:23:55;;;;;;;11.05;9.95;;;;;;;17.60;88.47;100275.78;1764907;81;21006;-70
2022/08/21 03:26:21;;;;;;;11.95;10.82;;;;;;;17.62;88.50;100280.97;1783895;79;21946;-70
2022/08/21 03:28:48;;;;;;;12.03;10.85;;;;;;;17.66;88.51;100284.88;1796280;79;20979;-69
2022/08/21 03:31:14;;;;;;;11.73;10.53;;;;;;;17.66;88.53;100274.89;1781931;79;20995;-70
2022/08/21 03:33:40;;;;;;;11.35;9.85;;;;;;;17.68;88.52;100277.39;1768433;79;21015;-70
2022/08/21 03:36:08;;;;;;;12.68;10.93;;;;;;;17.68;88.54;100274.69;1764092;80;21082;-70
2022/08/21 03:38:34;;;;;;;11.05;9.85;;;;;;;17.70;88.57;100280.16;1765408;79;21038;-70
2022/08/21 03:41:01;;;;;;;11.70;9.93;;;;;;;17.72;88.56;100282.66;1786552;79;21050;-70
2022/08/21 03:43:27;;;;;;;12.03;10.82;;;;;;;17.72;88.57;100285.35;1764637;79;21487;-70
2022/08/21 03:45:54;;;;;;;12.70;11.45;;;;;;;17.73;88.58;100282.97;1777016;79;21531;-70
2022/08/21 03:48:20;;;;;;;11.53;10.32;;;;;;;17.77;88.62;100286.85;1778052;79;21693;-69
2022/08/21 03:50:47;;;;;;;12.60;11.30;;;;;;;17.77;88.63;100286.33;1759535;79;21928;-69
2022/08/21 03:53:13;;;;;;;15.60;10.70;;;;;;;17.79;88.62;100295.56;1780754;79;21502;-69
2022/08/21 03:55:39;;;;;;;12.20;10.78;;;;;;;17.82;88.64;100289.73;1746385;80;21030;-70
2022/08/21 03:58:05;;;;;;;14.23;12.03;;;;;;;17.83;88.67;100286.00;1767843;79;21070;-70
2022/08/21 04:00:32;;;;;;;13.32;12.03;;;;;;;17.85;88.72;100287.42;1794602;79;21003;-70
2022/08/21 04:02:58;;;;;;;13.72;12.07;;;;;;;17.86;88.76;100290.95;1786333;79;21991;-70
2022/08/21 04:05:26;;;;;;;13.88;12.33;;;;;;;17.86;88.79;100290.95;1775631;79;21437;-70
2022/08/21 04:07:59;;;;;;;12.80;11.50;;;;;;;17.89;88.83;100293.20;1768416;80;26698;-70
2022/08/21 04:10:27;;;;;;;13.25;11.95;;;;;;;17.91;88.88;100296.49;1779723;80;21030;-70
2022/08/21 04:12:53;;;;;;;13.50;11.15;;;;;;;17.93;88.92;100297.95;1779208;80;21532;-70
2022/08/21 04:15:20;;;;;;;15.88;12.68;;;;;;;17.94;88.97;100293.38;1768135;79;21125;-70
2022/08/21 04:17:46;;;;;;;14.07;11.05;;;;;;;17.96;89.01;100304.25;1772765;80;21006;-70
2022/08/21 04:20:12;;;;;;;12.00;10.75;;;;;;;17.97;89.08;100314.52;1759289;81;21054;-70
2022/08/21 04:22:38;;;;;;;15.83;10.18;;;;;;;17.97;89.15;100313.17;1758429;80;20992;-70
2022/08/21 04:25:07;;;;;;;11.33;10.23;;;;;;;17.95;89.19;100312.55;1761198;80;20975;-70
2022/08/21 04:27:34;;;;;;;11.95;9.15;;;;;;;17.93;89.24;100310.61;1778078;79;21256;-70
2022/08/21 04:30:00;;;;;;;9.50;8.50;;;;;;;17.93;89.27;100310.09;1758448;80;21007;-70
2022/08/21 04:32:27;;;;;;;11.38;9.48;;;;;;;17.90;89.28;100313.75;1759167;81;21022;-70
2022/08/21 04:35:04;;;;;;;10.98;9.00;;;;;;;17.90;89.30;100317.80;1759215;81;21031;-70
2022/08/21 04:37:30;;;;;;;8.20;7.33;;;;;;;17.87;89.30;100314.20;1759056;80;21007;-70
2022/08/21 04:39:58;;;;;;;9.48;6.95;;;;;;;17.83;89.34;100318.37;1762488;80;21131;-70
2022/08/21 04:42:25;;;;;;;8.73;7.30;;;;;;;17.80;89.34;100318.81;1780373;80;21070;-70
2022/08/21 04:44:51;;;;;;;10.93;7.08;;;;;;;17.77;89.36;100317.88;1757877;81;21518;-70
2022/08/21 04:47:18;;;;;;;10.08;6.70;;;;;;;17.74;89.34;100322.36;1760664;80;21322;-70
2022/08/21 04:49:45;;;;;;;7.70;5.90;;;;;;;17.68;89.34;100311.94;1757147;80;21520;-70
2022/08/21 04:52:12;;;;;;;9.98;6.62;;;;;;;17.65;89.32;100319.64;1782240;80;21846;-70
2022/08/21 04:54:38;;;;;;;10.23;5.65;;;;;;;17.60;89.31;100324.84;1764053;80;21031;-70
2022/08/21 04:57:07;;;;;;;7.95;5.75;;;;;;;17.58;89.31;100324.25;1759520;79;21058;-71
2022/08/21 04:59:37;;;;;;;10.88;5.37;;;;;;;17.54;89.28;100325.17;1780223;80;21047;-71
2022/08/21 05:02:03;;;;;;;9.83;5.62;;;;;;;17.52;89.27;100327.78;1758390;80;20992;-71
2022/08/21 05:04:31;;;;;;;9.53;4.85;;;;;;;17.49;89.26;100339.29;1739955;80;21019;-71
2022/08/21 05:06:58;;;;;;;8.18;5.12;;;;;;;17.48;89.22;100330.92;1773277;80;21074;-71
2022/08/21 05:09:24;;;;;;;10.03;5.58;;;;;;;17.43;89.15;100340.68;1784370;80;21512;-71
2022/08/21 05:11:51;;;;;;;6.78;4.50;;;;;;;17.41;89.11;100342.78;1771928;79;21484;-71
2022/08/21 05:14:17;;;;;;;10.15;5.05;;;;;;;17.42;89.06;100348.45;1760587;80;21051;-71
2022/08/21 05:16:43;;;;;;;10.48;5.03;;;;;;;17.40;89.03;100347.34;1790964;80;21890;-71
2022/08/21 05:19:10;;;;;;;8.43;4.65;;;;;;;17.38;88.98;100352.10;1796104;79;21070;-71
2022/08/21 05:21:40;;;;;;;9.10;4.25;;;;;;;17.37;88.92;100361.25;1772447;79;21003;-71
2022/08/21 05:24:06;;;;;;;9.90;5.33;;;;;;;17.36;88.86;100359.59;1762037;79;21023;-71
2022/08/21 05:26:33;;;;;;;8.98;4.50;;;;;;;17.34;88.81;100357.64;1764031;81;21062;-71
2022/08/21 05:29:01;;;;;;;10.60;4.67;;;;;;;17.33;88.72;100361.38;1763786;79;21908;-71
2022/08/21 05:31:27;;;;;;;8.78;4.58;;;;;;;17.31;88.66;100358.05;1764098;81;20983;-71
2022/08/21 05:33:55;;;;;;;8.88;4.03;;;;;;;17.30;88.60;100365.02;1782945;80;21770;-71
2022/08/21 05:36:23;;;;;;;;;;;;;;;17.27;88.50;100369.50;1764203;80;21008;-71
2022/08/21 05:38:49;;;;;;;11.05;4.40;;;;;;;17.23;88.44;100367.75;1762532;80;20863;-71
2022/08/21 05:41:16;;;;;;;9.65;3.98;;;;;;;17.23;88.37;100373.66;1748294;80;21960;-71
2022/08/21 05:43:42;;;;;;;5.55;3.27;;;;;;;17.19;88.31;100378.64;1762941;79;20983;-71
2022/08/21 05:46:08;;;;;;;5.58;3.33;;;;;;;17.16;88.26;100376.37;1766939;79;21480;-71
2022/08/21 05:48:35;;;;;;;7.05;3.72;;;;;;;17.14;88.14;100381.14;1774609;78;21518;-71
2022/08/21 05:51:06;;;;;;;11.55;3.52;;;;;;;17.09;88.01;100389.05;1761978;79;21000;-71
2022/08/21 05:53:33;;;;;;;7.58;4.08;;;;;;;17.06;87.91;100392.69;1762636;79;21183;-71
2022/08/21 05:55:59;;;;;;;8.70;3.30;;;;;;;17.03;87.82;100398.50;1763434;79;21030;-71
2022/08/21 05:58:25;;;;;;;6.42;2.83;;;;;;;16.98;87.69;100405.87;1765096;79;20987;-71
2022/08/21 06:00:52;;;;;;;4.97;3.30;;;;;;;16.92;87.53;100408.06;1764371;80;21510;-71
2022/08/21 06:03:22;;;;;;;8.80;2.95;;;;;;;16.84;87.37;100409.63;1764267;79;21053;-71
2022/08/21 06:05:49;;;;;;;3.85;2.30;;;;;;;16.75;87.22;100414.39;1764847;81;21187;-71
2022/08/21 06:08:16;;;;;;;8.18;2.30;;;;;;;16.65;87.06;100410.47;1764472;79;20992;-71
2022/08/21 06:10:43;;;;;;;8.85;3.47;;;;;;;16.58;86.93;100409.65;1762500;79;21106;-71
2022/08/21 06:13:10;;;;;;;9.45;3.00;;;;;;;16.49;86.76;100413.89;1764663;81;21059;-70
2022/08/21 06:15:36;;;;;;;6.50;2.45;;;;;;;16.41;86.62;100401.98;1764606;80;21018;-71
2022/08/21 06:18:02;;;;;;;8.33;2.90;;;;;;;16.37;86.57;100407.97;1764844;80;21141;-70
2022/08/21 06:20:30;;;;;;;8.35;2.98;;;;;;;16.31;86.47;100401.57;1764963;79;20990;-71
2022/08/21 06:22:56;;;;;;;4.03;2.25;;;;;;;16.27;86.39;100398.97;1748654;81;20991;-71
2022/08/21 06:25:22;;;;;;;9.98;3.40;;;;;;;16.25;86.36;100391.64;1716789;82;21011;-71
2022/08/21 06:27:48;;;;;;;8.78;2.52;;;;;;;16.20;86.32;100394.11;1731130;82;21053;-71
2022/08/21 06:30:15;;;;;;;7.67;2.90;;;;;;;16.16;86.29;100400.94;1726458;82;21151;-71
2022/08/21 06:32:41;;;;;;;4.80;2.50;;;;;;;16.12;86.27;100405.06;1731880;81;21090;-70
2022/08/21 06:35:08;;;;;;;5.55;2.72;;;;;;;16.09;86.26;100407.34;1729801;83;21034;-71
2022/08/21 06:37:34;;;;;;;5.50;2.40;;;;;;;16.03;86.26;100410.34;1729467;82;20986;-71
2022/08/21 06:40:00;;;;;;;7.83;2.45;;;;;;;15.98;86.26;100415.50;1730001;82;21066;-71
2022/08/21 06:42:29;;;;;;;4.22;2.30;;;;;;;15.90;86.24;100422.44;1713860;82;21105;-71
2022/08/21 06:44:57;;;;;;;5.12;2.33;;;;;;;15.85;86.27;100418.17;1729905;81;20979;-71
2022/08/21 06:47:23;;;;;;;7.37;2.22;;;;;;;15.79;86.25;100429.23;1713921;82;21015;-71
2022/08/21 06:49:49;;;;;;;7.47;2.58;;;;;;;15.74;86.25;100429.00;1729486;82;21030;-71
2022/08/21 06:52:15;;;;;;;7.33;2.42;;;;;;;15.74;86.28;100430.86;1730069;81;21010;-71
2022/08/21 06:54:41;;;;;;;5.78;2.92;;;;;;;15.72;86.30;100432.93;1730583;82;21632;-71
2022/08/21 06:57:08;;;;;;;7.15;2.95;;;;;;;15.69;86.33;100430.66;1714921;83;21027;-71
2022/08/21 06:59:34;;;;;;;6.42;2.67;;;;;;;15.69;86.35;100426.62;1730884;82;20997;-71
2022/08/21 07:02:00;;;;;;;11.45;3.02;;;;;;;15.72;86.39;100434.28;1714627;82;21046;-71
2022/08/21 07:04:26;;;;;;;4.10;2.37;;;;;;;15.73;86.42;100431.88;1730590;81;21390;-71
2022/08/21 07:06:52;;;;;;;7.55;2.55;;;;;;;15.71;86.46;100428.06;1729137;82;21850;-71
2022/08/21 07:09:19;;;;;;;7.90;2.70;;;;;;;15.71;86.50;100429.92;1707322;84;20996;-71
2022/08/21 07:11:47;;;;;;;5.55;2.65;;;;;;;15.69;86.54;100427.97;1710312;82;21571;-71
2022/08/21 07:14:13;;;;;;;5.87;2.92;;;;;;;15.67;86.56;100439.42;1725721;81;21013;-71
2022/08/21 07:16:39;;;;;;;4.47;2.85;;;;;;;15.66;86.60;100433.72;1724557;82;21644;-70
2022/08/21 07:19:05;;;;;;;5.37;2.58;;;;;;;15.65;86.67;100433.42;1724316;82;21118;-71
2022/08/21 07:21:31;;;;;;;5.30;2.62;;;;;;;15.63;86.70;100432.27;1707058;81;21025;-71
2022/08/21 07:23:57;;;;;;;5.05;2.60;;;;;;;15.59;86.75;100432.36;1715642;83;21033;-71
2022/08/21 07:26:25;;;;;;;7.45;3.27;;;;;;;15.55;86.76;100431.64;1723476;82;21019;-71
2022/08/21 07:28:52;;;;;;;4.12;2.20;;;;;;;15.51;86.79;100431.21;1709031;82;21401;-71
2022/08/21 07:31:19;;;;;;;4.60;2.17;;;;;;;15.44;86.82;100437.88;1724890;82;21432;-71
2022/08/21 07:33:46;;;;;;;6.17;2.33;;;;;;;15.37;86.84;100437.02;1724467;82;21030;-71
2022/08/21 07:36:12;;;;;;;5.03;1.90;;;;;;;15.33;86.85;100439.78;1724724;81;20999;-71
2022/08/21 07:38:38;;;;;;;4.80;1.95;;;;;;;15.26;86.83;100436.75;1722976;82;20982;-71
2022/08/21 07:41:13;;;;;;;6.53;2.30;;;;;;;15.17;86.81;100437.41;1724601;82;21062;-71
2022/08/21 07:43:41;;;;;;;5.42;2.20;;;;;;;15.10;86.79;100435.20;1714200;81;21150;-71
2022/08/21 07:46:07;;;;;;;4.25;2.47;;;;;;;15.05;86.78;100439.02;1700453;81;21054;-71
2022/08/21 07:48:33;;;;;;;4.17;2.27;;;;;;;15.00;86.75;100442.80;1730501;82;21021;-71
2022/08/21 07:50:59;;;;;;;7.45;2.08;;;;;;;14.96;86.74;100441.52;1727943;82;21083;-71
2022/08/21 07:53:25;;;;;;;6.35;2.30;;;;;;;14.94;86.70;100440.91;1729060;82;21063;-71
2022/08/21 07:55:51;;;;;;;8.70;2.30;;;;;;;14.89;86.69;100440.66;1717552;82;21148;-71
2022/08/21 07:58:17;;;;;;;6.53;2.80;;;;;;;14.87;86.67;100442.72;1724501;82;20998;-71
2022/08/21 08:00:43;;;;;;;4.87;2.40;;;;;;;14.85;86.67;100438.03;1724500;82;21448;-71
2022/08/21 08:03:09;;;;;;;4.03;1.92;;;;;;;14.85;86.66;100434.01;1713796;81;21666;-71
2022/08/21 08:05:37;;;;;;;3.30;1.80;;;;;;;14.83;86.64;100436.08;1724421;82;21534;-71
2022/08/21 08:08:03;;;;;;;7.55;2.35;;;;;;;14.77;86.62;100434.19;1724348;82;21156;-71
2022/08/21 08:10:29;;;;;;;5.58;2.00;;;;;;;14.72;86.62;100429.90;1724137;82;21581;-71
2022/08/21 08:12:55;;;;;;;3.72;1.95;;;;;;;14.70;86.65;100427.94;1724220;81;21534;-72
2022/08/21 08:15:24;;;;;;;8.80;2.90;;;;;;;14.68;86.72;100432.14;1724620;82;21022;-70
2022/08/21 08:17:50;;;;;;;6.37;2.93;;;;;;;14.67;86.67;100433.70;1724658;81;21504;-71
2022/08/21 08:20:18;;;;;;;7.90;3.00;;;;;;;14.67;86.69;100433.70;1724673;82;21258;-70
2022/08/21 08:22:44;;;;;;;8.78;5.10;;;;;;;14.67;86.69;100433.70;1718091;83;21003;-70
2022/08/21 08:25:12;;;;;;;8.10;2.60;;;;;;;14.66;86.71;100433.37;1724496;82;21066;-71
2022/08/21 08:27:38;;;;;;;3.72;2.75;;;;;;;14.67;86.70;100432.36;1724386;82;21024;-70
2022/08/21 08:30:06;;;;;;;4.22;2.27;;;;;;;14.66;86.75;100434.72;1719203;81;21460;-71
2022/08/21 08:32:33;;;;;;;5.22;2.80;;;;;;;14.66;86.75;100438.23;1724004;81;21667;-71
2022/08/21 08:34:59;;;;;;;3.22;2.20;;;;;;;14.69;86.83;100437.01;1704270;82;21491;-71
2022/08/21 08:37:25;;;;;;;4.50;2.80;;;;;;;14.69;86.83;100437.01;1724888;82;21512;-71
2022/08/21 08:39:52;;;;;;;6.25;2.62;;;;;;;14.69;86.78;100437.01;1724248;82;20994;-70
2022/08/21 08:42:25;;;;;;;8.53;2.98;;;;;;;14.72;86.80;100446.01;1725399;81;21265;-71
2022/08/21 08:45:00;;;;;;;4.30;2.22;;;;;;;14.70;86.80;100434.65;1717063;81;21440;-70
2022/08/21 08:47:26;;;;;;;5.40;2.17;;;;;;;14.78;86.83;100443.87;1724241;81;21083;-71
2022/08/21 08:50:07;;;;;;;4.83;2.58;;;;;;;14.78;87.02;100442.02;1727479;81;20999;-71
2022/08/21 08:52:36;;;;;;;5.03;2.50;;;;;;;14.78;87.02;100442.02;1723820;81;21511;-71
2022/08/21 08:55:07;;;;;;;4.00;2.57;;;;;;;14.79;86.86;100441.52;1688564;82;21059;-70
2022/08/21 08:57:33;;;;;;;6.35;2.30;;;;;;;14.80;86.65;100443.19;1724665;81;22228;-71
2022/08/21 09:00:03;;;;;;;5.97;2.37;;;;;;;14.80;86.65;100443.19;1725987;83;21601;-71
2022/08/21 09:02:29;;;;;;;;;;;;;;;14.83;86.90;100452.19;1709534;83;21084;-71
2022/08/21 09:04:55;;;;;;;9.83;3.85;;;;;;;14.83;86.90;100451.67;1697656;82;20266;-74
2022/08/21 09:07:27;;;;;;;7.37;2.60;;;;;;;14.87;87.09;100444.06;1709084;81;21573;-74
2022/08/21 09:10:20;;;;;;;6.62;3.15;;;;;;;14.87;87.09;100444.06;1707105;81;21496;-74
2022/08/21 09:12:58;;;;;;;6.83;3.10;;;;;;;14.78;86.91;100429.11;1718195;81;21037;-74
2022/08/21 09:16:15;;;;;;;6.05;3.25;;;;;;;14.93;87.03;100451.32;1718195;82;21067;-74
2022/08/21 09:18:54;;;;;;;6.42;2.65;;;;;;;14.94;87.00;100444.94;1721252;82;20982;-74
2022/08/21 09:21:49;;;;;;;5.60;2.87;;;;;;;14.96;87.03;100438.84;1705060;82;21102;-74
2022/08/21 09:24:24;;;;;;;7.35;3.37;;;;;;;14.98;87.05;100442.17;1669817;84;21132;-74
2022/08/21 09:26:58;;;;;;;5.45;3.10;;;;;;;14.98;87.08;100438.14;1710168;81;21007;-74
2022/08/21 09:29:28;;;;;;;10.00;3.58;;;;;;;14.98;87.08;100438.14;1711995;82;21634;-74
2022/08/21 09:31:54;;;;;;;5.03;2.90;;;;;;;14.98;87.29;100440.32;1711636;82;21055;-74
2022/08/21 09:34:27;;;;;;;4.58;2.70;;;;;;;14.90;87.22;100422.18;1709686;82;21105;-75
2022/08/21 09:36:53;;;;;;;5.87;2.85;;;;;;;14.93;87.31;100425.81;1711843;82;21361;-75
2022/08/21 09:39:30;;;;;;;3.72;2.80;;;;;;;14.93;87.31;100425.81;1712367;82;21062;-75
2022/08/21 09:42:03;;;;;;;8.25;3.12;;;;;;;15.03;87.38;100441.05;1712573;82;21035;-74
2022/08/21 09:44:33;;;;;;;7.30;3.42;;;;;;;15.04;87.55;100440.54;1712558;81;21039;-75
2022/08/21 09:46:59;;;;;;;5.83;2.95;;;;;;;15.04;87.52;100442.72;1712170;81;21056;-75
2022/08/21 09:49:34;;;;;;;6.35;2.77;;;;;;;15.04;87.58;100445.41;1711991;81;21729;-75
2022/08/21 09:52:00;;;;;;;5.45;3.45;;;;;;;15.05;87.65;100444.38;1720647;83;21022;-75
2022/08/21 09:54:36;;;;;;;14.15;11.18;;;;;;;15.07;87.61;100451.72;1695970;83;21079;-75
2022/08/21 10:00:26;;;;;;;8.95;7.37;;;;;;;15.09;87.83;100457.74;1710241;82;21123;-75
2022/08/21 10:02:52;;;;;;;9.93;4.10;;;;;;;15.10;87.89;100462.06;1703421;82;21166;-74
2022/08/21 10:05:22;;;;;;;5.90;3.45;;;;;;;15.02;87.93;100452.84;1731233;82;21031;-75
2022/08/21 10:07:49;;;;;;;6.35;3.70;;;;;;;15.09;87.85;100457.74;1722557;82;21006;-75
2022/08/21 10:10:26;;;;;;;6.42;3.83;;;;;;;15.10;88.04;100460.72;1702843;82;21004;-74
2022/08/21 10:13:15;;;;;;;7.55;4.55;;;;;;;15.11;88.10;100457.02;1707481;81;21106;-76
2022/08/21 10:16:05;;;;;;;7.25;3.92;;;;;;;14.99;88.13;100434.41;1709247;81;21182;-77
2022/08/21 10:18:42;;;;;;;;;;;;;;;15.13;88.20;100449.58;1708692;82;21024;-76
2022/08/21 10:21:19;;;;;;;7.15;3.72;;;;;;;15.17;88.23;100445.47;1712237;81;20138;-77
2022/08/21 10:24:10;;;;;;;9.50;4.35;;;;;;;15.19;88.41;100448.80;1714284;81;21524;-77
2022/08/21 10:26:59;;;;;;;10.00;4.60;;;;;;;15.22;88.28;100451.09;1637494;81;21102;-76
2022/08/21 10:29:45;;;;;;;7.40;4.10;;;;;;;15.24;88.30;100454.39;1723635;81;21518;-77
2022/08/21 10:32:26;;;;;;;8.85;3.98;;;;;;;15.22;88.33;100440.34;1725086;81;21038;-77
2022/08/21 10:35:24;;;;;;;7.45;4.40;;;;;;;15.21;88.34;100446.73;1714740;81;21063;-77
2022/08/21 10:37:58;;;;;;;8.55;3.90;;;;;;;15.24;88.39;100440.13;1712072;81;21012;-77
2022/08/21 10:40:39;;;;;;;9.18;4.15;;;;;;;15.08;88.35;100402.35;1714942;83;21063;-77
2022/08/21 10:43:23;;;;;;;7.72;3.37;;;;;;;15.32;88.40;100426.53;1714800;81;21161;-77
2022/08/21 10:46:19;;;;;;;7.00;4.03;;;;;;;15.37;88.43;100421.41;1713305;81;21038;-77
2022/08/21 10:48:52;;;;;;;7.37;4.08;;;;;;;15.42;88.45;100417.07;1714801;83;20999;-77
2022/08/21 10:51:40;;;;;;;7.85;4.33;;;;;;;15.46;88.47;100411.61;1720821;81;20992;-77
2022/08/21 10:54:52;;;;;;;11.20;4.40;;;;;;;15.49;88.48;100416.61;1686584;83;21032;-77
2022/08/21 10:57:38;;;;;;;8.28;4.25;;;;;;;15.53;88.48;100417.55;1717844;81;21017;-77
2022/08/21 11:00:12;;;;;;;6.15;3.90;;;;;;;15.59;88.50;100418.91;1723715;81;20988;-77
2022/08/21 11:02:57;;;;;;;8.03;4.75;;;;;;;15.65;88.52;100410.57;1724772;82;21485;-77
2022/08/21 11:05:52;;;;;;;8.78;4.90;;;;;;;15.72;88.53;100408.73;1711364;81;20984;-77
2022/08/21 11:08:33;;;;;;;9.58;5.65;;;;;;;15.78;88.53;100411.94;1744711;81;22318;-77
2022/08/21 11:11:20;;;;;;;7.58;3.67;;;;;;;15.87;88.56;100398.61;1728323;81;21036;-77
2022/08/21 11:14:06;;;;;;;6.22;4.03;;;;;;;15.95;88.57;100411.88;1720379;81;21819;-77
2022/08/21 11:17:00;;;;;;;5.55;3.80;;;;;;;16.05;88.54;100421.72;1723325;81;21041;-78
2022/08/21 11:19:32;;;;;;;11.03;4.65;;;;;;;16.11;88.53;100426.81;1729189;83;20999;-77
2022/08/21 11:22:24;;;;;;;8.73;4.58;;;;;;;16.21;88.56;100433.95;1728001;81;21308;-76
2022/08/21 11:25:08;;;;;;;5.78;3.85;;;;;;;16.28;88.57;100423.52;1695254;83;21106;-77
2022/08/21 11:28:12;;;;;;;6.15;3.80;;;;;;;16.37;88.58;100423.61;1699264;82;21052;-76
2022/08/21 11:31:15;;;;;;;5.72;3.55;;;;;;;16.45;88.56;100424.76;1729020;81;21026;-77
2022/08/21 11:34:11;;;;;;;6.17;4.25;;;;;;;16.57;88.55;100420.13;1678000;81;21109;-77
2022/08/21 11:36:57;;;;;;;8.45;3.95;;;;;;;16.69;88.56;100414.41;1731128;81;21089;-77
2022/08/21 11:39:47;;;;;;;7.15;4.05;;;;;;;16.83;88.54;100417.39;1728142;81;21139;-77